Time;durP1;ratioP1;P1;durP2;ratioP2;P2;SDS_P1;SDS_P2;PMS_P1;PMS_P2;Temp;Humidity;BMP_temperature;BMP_pressure;BME280_temperature;BME280_humidity;BME280_pressure;Samples;Min_cycle;Max_cycle;Signal;HPM_P1;HPM_P2
2021/01/03 00:01:46;;;;;;;16.33;11.15;;;256.00;1715.20;;;;;;5024344;28;20033;-67
2021/01/03 00:04:12;;;;;;;18.25;11.77;;;256.00;1715.20;;;;;;5022509;28;20091;-67
2021/01/03 00:06:38;;;;;;;17.30;11.27;;;256.00;1715.20;;;;;;5021673;28;20116;-67
2021/01/03 00:09:05;;;;;;;16.20;11.45;;;256.00;1715.20;;;;;;5024182;28;20545;-67
2021/01/03 00:11:31;;;;;;;17.50;12.15;;;256.00;1715.20;;;;;;5023300;28;20512;-67
2021/01/03 00:13:57;;;;;;;26.88;14.07;;;231.30;1715.20;;;;;;5030335;28;20022;-67
2021/01/03 00:16:23;;;;;;;23.50;12.88;;;256.00;1817.60;;;;;;5023154;28;20109;-68
2021/01/03 00:18:48;;;;;;;16.38;11.02;;;256.00;1766.40;;;;;;5022319;28;20024;-68
2021/01/03 00:21:14;;;;;;;16.40;10.75;;;256.00;1740.80;;;;;;5022551;28;20051;-67
2021/01/03 00:23:40;;;;;;;14.73;10.63;;;231.30;1740.80;;;;;;5017767;28;20026;-68
2021/01/03 00:26:06;;;;;;;17.23;11.57;;;256.00;1715.20;;;;;;5014444;28;20049;-68
2021/01/03 00:28:32;;;;;;;14.13;10.55;;;256.00;1715.20;;;;;;5014620;28;20419;-68
2021/01/03 00:30:58;;;;;;;13.48;10.57;;;231.30;1715.20;;;;;;5014042;28;20529;-68
2021/01/03 00:33:24;;;;;;;14.85;10.25;;;231.30;1740.80;;;;;;5014192;28;20022;-68
2021/01/03 00:35:50;;;;;;;15.00;10.77;;;231.30;1740.80;;;;;;5014027;28;20073;-68
2021/01/03 00:38:17;;;;;;;15.65;10.88;;;231.30;1715.20;;;;;;5013946;28;20065;-68
2021/01/03 00:40:43;;;;;;;17.77;11.05;;;231.30;1740.80;;;;;;5030834;28;20440;-68
2021/01/03 00:43:10;;;;;;;16.65;10.75;;;231.30;1740.80;;;;;;5033736;28;20356;-68
2021/01/03 00:45:36;;;;;;;16.08;11.25;;;231.30;1740.80;;;;;;5033820;28;20036;-68
2021/01/03 00:48:03;;;;;;;18.60;11.15;;;256.00;1715.20;;;;;;5033963;28;20022;-68
2021/01/03 00:50:29;;;;;;;17.23;11.75;;;231.30;1740.80;;;;;;5033901;28;20031;-68
2021/01/03 00:52:55;;;;;;;14.38;10.52;;;231.30;1740.80;;;;;;5033943;28;20410;-68
2021/01/03 00:55:21;;;;;;;17.73;11.73;;;256.00;1715.20;;;;;;5033686;28;20025;-68
2021/01/03 00:57:47;;;;;;;18.58;12.15;;;256.00;1740.80;;;;;;5033653;28;20529;-68
2021/01/03 01:00:20;;;;;;;16.55;11.50;;;256.00;1740.80;;;;;;5033572;28;20025;-68
2021/01/03 01:02:46;;;;;;;20.73;12.98;;;256.00;1715.20;;;;;;5033832;28;20057;-68
2021/01/03 01:05:14;;;;;;;16.08;11.32;;;256.00;1740.80;;;;;;5034035;28;20387;-68
2021/01/03 01:07:40;;;;;;;18.75;12.60;;;256.00;1740.80;;;;;;5033811;28;20030;-68
2021/01/03 01:10:09;;;;;;;19.15;12.43;;;256.00;1740.80;;;;;;5033822;28;20429;-68
2021/01/03 01:12:36;;;;;;;19.08;12.10;;;256.00;1740.80;;;;;;5033334;28;20091;-69
2021/01/03 01:15:17;;;;;;;15.77;10.98;;;256.10;1715.20;;;;;;5033196;28;20029;-68
2021/01/03 01:17:45;;;;;;;21.05;12.57;;;256.10;1740.80;;;;;;5033656;28;20026;-68
2021/01/03 01:20:11;;;;;;;19.67;12.73;;;256.00;1740.80;;;;;;5033451;28;20475;-68
2021/01/03 01:22:37;;;;;;;17.52;12.15;;;256.00;1740.80;;;;;;5033496;28;20025;-68
2021/01/03 01:25:05;;;;;;;19.45;13.27;;;256.00;1740.80;;;;;;5033414;28;20120;-68
2021/01/03 01:27:31;;;;;;;22.35;14.35;;;256.00;1740.80;;;;;;5033248;28;20025;-68
2021/01/03 01:29:57;;;;;;;19.30;13.27;;;256.00;1740.80;;;;;;5033489;28;20151;-68
2021/01/03 01:32:22;;;;;;;23.83;14.23;;;256.00;1740.80;;;;;;5033090;28;20506;-68
2021/01/03 01:34:48;;;;;;;27.17;15.07;;;256.10;1740.80;;;;;;5033321;28;20460;-68
2021/01/03 01:37:14;;;;;;;23.35;13.85;;;256.10;1740.80;;;;;;5033754;28;20030;-68
2021/01/03 01:39:40;;;;;;;23.42;13.95;;;256.00;1740.80;;;;;;5033294;28;20470;-68
2021/01/03 01:42:05;;;;;;;19.25;13.45;;;256.00;1740.80;;;;;;5033086;28;20128;-68
2021/01/03 01:44:31;;;;;;;24.00;14.15;;;256.00;1766.40;;;;;;5033379;28;20114;-68
2021/01/03 01:47:05;;;;;;;21.52;14.00;;;256.00;1766.40;;;;;;5019528;28;20064;-68
2021/01/03 01:49:37;;;;;;;19.67;12.77;;;256.00;1766.40;;;;;;5037044;28;20348;-68
2021/01/03 01:52:03;;;;;;;17.98;12.70;;;256.00;1766.40;;;;;;5037057;28;20064;-68
2021/01/03 01:54:35;;;;;;;21.27;14.48;;;256.00;1792.00;;;;;;5036921;28;20474;-69
2021/01/03 01:57:42;;;;;;;21.83;14.68;;;256.00;1792.00;;;;;;5036976;28;20425;-69
2021/01/03 02:00:16;;;;;;;22.23;13.63;;;256.00;1792.00;;;;;;4956692;29;20031;-69
2021/01/03 02:03:23;;;;;;;22.60;14.48;;;256.00;1792.00;;;;;;4956608;29;20038;-68
2021/01/03 02:05:53;;;;;;;21.48;14.23;;;231.30;1817.60;;;;;;4956328;29;20031;-68
2021/01/03 02:08:32;;;;;;;23.00;14.65;;;231.30;1817.60;;;;;;4956486;29;20074;-68
2021/01/03 02:10:59;;;;;;;24.38;14.60;;;231.30;1817.60;;;;;;4956507;29;20432;-69
2021/01/03 02:13:27;;;;;;;21.20;14.45;;;231.30;1817.60;;;;;;4956452;29;20035;-69
2021/01/03 02:15:57;;;;;;;23.15;14.77;;;231.30;1817.60;;;;;;4956381;29;20501;-69
2021/01/03 02:18:23;;;;;;;23.55;13.55;;;231.30;1817.60;;;;;;4956473;29;20031;-68
2021/01/03 02:21:06;;;;;;;19.95;13.73;;;231.30;1817.60;;;;;;4956492;29;20027;-68
2021/01/03 02:23:48;;;;;;;20.50;13.35;;;231.30;1817.60;;;;;;4956274;29;20054;-69
2021/01/03 02:26:16;;;;;;;22.92;14.52;;;231.30;1817.60;;;;;;4956354;29;20031;-69
2021/01/03 02:28:44;;;;;;;19.52;14.13;;;231.30;1817.60;;;;;;4955879;29;20107;-68
2021/01/03 02:31:13;;;;;;;19.50;13.40;;;231.30;1817.60;;;;;;4955909;29;20043;-69
2021/01/03 02:33:42;;;;;;;24.50;15.27;;;231.30;1817.60;;;;;;4956170;29;20553;-68
2021/01/03 02:36:19;;;;;;;20.60;14.43;;;231.30;1817.60;;;;;;4990339;28;20037;-68
2021/01/03 02:39:00;;;;;;;22.67;14.57;;;231.30;1817.60;;;;;;5036343;28;20021;-68
2021/01/03 02:41:27;;;;;;;22.30;14.90;;;231.30;1817.60;;;;;;5035924;28;20060;-68
2021/01/03 02:43:52;;;;;;;22.27;14.70;;;231.30;1817.60;;;;;;5036143;28;20022;-68
2021/01/03 02:46:18;;;;;;;22.85;14.23;;;231.30;1817.60;;;;;;5017841;28;20044;-69
2021/01/03 02:48:44;;;;;;;23.33;14.73;;;231.30;1817.60;;;;;;5036101;28;20103;-69
2021/01/03 02:51:10;;;;;;;24.80;15.18;;;231.30;1817.60;;;;;;5018297;28;20374;-68
2021/01/03 02:53:36;;;;;;;24.13;15.00;;;231.30;1817.60;;;;;;5035908;28;20025;-68
2021/01/03 02:56:02;;;;;;;22.40;14.25;;;231.30;1817.60;;;;;;5034992;28;20022;-69
2021/01/03 02:58:27;;;;;;;19.70;13.55;;;231.30;1817.60;;;;;;5035479;28;20029;-69
2021/01/03 03:00:53;;;;;;;21.23;13.77;;;231.30;1817.60;;;;;;5035670;28;20504;-69
2021/01/03 03:03:19;;;;;;;23.02;14.95;;;231.30;1817.60;;;;;;5017993;28;20029;-68
2021/01/03 03:05:44;;;;;;;19.67;12.73;;;231.20;1817.60;;;;;;5035830;28;20021;-68
2021/01/03 03:08:10;;;;;;;21.42;13.05;;;231.20;1817.60;;;;;;5017742;28;20021;-68
2021/01/03 03:10:36;;;;;;;21.77;13.73;;;231.30;1817.60;;;;;;5035213;28;20467;-70
2021/01/03 03:13:01;;;;;;;19.35;13.85;;;231.20;1817.60;;;;;;5035343;28;20061;-69
2021/01/03 03:15:32;;;;;;;20.88;13.60;;;231.20;1817.60;;;;;;5035521;28;20022;-69
2021/01/03 03:17:58;;;;;;;20.23;13.50;;;231.20;1817.60;;;;;;5035638;28;20036;-69
2021/01/03 03:20:23;;;;;;;19.67;13.07;;;231.20;1817.60;;;;;;5035323;28;20105;-69
2021/01/03 03:22:49;;;;;;;22.35;13.40;;;231.20;1817.60;;;;;;5034659;28;20104;-69
2021/01/03 03:25:16;;;;;;;21.25;13.05;;;231.30;1817.60;;;;;;5035492;28;20032;-69
2021/01/03 03:27:42;;;;;;;19.52;12.98;;;231.30;1817.60;;;;;;5035108;28;20071;-69
2021/01/03 03:30:10;;;;;;;20.00;12.98;;;231.20;1817.60;;;;;;5035133;28;20029;-69
2021/01/03 03:32:36;;;;;;;18.48;12.93;;;231.20;1817.60;;;;;;5017084;28;20041;-69
2021/01/03 03:35:03;;;;;;;18.38;13.02;;;231.20;1817.60;;;;;;5035224;28;20363;-69
2021/01/03 03:37:29;;;;;;;20.67;12.73;;;231.20;1817.60;;;;;;5017313;28;20036;-69
2021/01/03 03:39:55;;;;;;;19.83;12.48;;;231.20;1817.60;;;;;;5034931;28;20033;-69
2021/01/03 03:42:20;;;;;;;24.10;14.57;;;231.20;1817.60;;;;;;5034869;28;20085;-69
2021/01/03 03:44:46;;;;;;;21.15;13.65;;;231.20;1817.60;;;;;;5035044;28;20105;-69
2021/01/03 03:47:12;;;;;;;19.83;12.32;;;231.10;1817.60;;;;;;5034789;28;20352;-69
2021/01/03 03:49:38;;;;;;;23.75;12.90;;;231.20;1843.20;;;;;;5035141;28;20469;-69
2021/01/03 03:52:05;;;;;;;21.90;13.05;;;231.20;1817.60;;;;;;5034980;28;20038;-69
2021/01/03 03:54:31;;;;;;;18.60;12.45;;;231.20;1817.60;;;;;;5034943;28;20044;-68
2021/01/03 03:57:04;;;;;;;20.05;12.93;;;231.10;1817.60;;;;;;5034453;28;20029;-69
2021/01/03 03:59:30;;;;;;;22.90;13.18;;;231.20;1817.60;;;;;;5034542;28;20080;-69
2021/01/03 04:01:56;;;;;;;22.15;13.40;;;231.10;1817.60;;;;;;5034741;28;20030;-69
2021/01/03 04:04:24;;;;;;;20.73;13.40;;;231.10;1843.20;;;;;;5034422;28;20026;-69
2021/01/03 04:06:50;;;;;;;20.17;13.05;;;231.10;1817.60;;;;;;5034662;28;20083;-69
2021/01/03 04:09:16;;;;;;;22.70;14.02;;;231.10;1817.60;;;;;;5034153;28;20454;-69
2021/01/03 04:11:44;;;;;;;21.73;13.10;;;231.10;1817.60;;;;;;5034299;28;20026;-69
2021/01/03 04:14:11;;;;;;;22.42;12.88;;;231.10;1843.20;;;;;;5034390;28;20040;-68
2021/01/03 04:16:57;;;;;;;23.15;12.77;;;231.00;1843.20;;;;;;5034564;28;20056;-69
2021/01/03 04:19:24;;;;;;;20.52;12.50;;;231.00;1843.20;;;;;;5016338;28;20041;-68
2021/01/03 04:21:52;;;;;;;24.05;12.65;;;231.00;1843.20;;;;;;5034316;28;20060;-69
2021/01/03 04:24:18;;;;;;;19.70;12.30;;;231.00;1817.60;;;;;;5033915;28;20022;-69
2021/01/03 04:26:49;;;;;;;22.08;12.60;;;231.00;1817.60;;;;;;5034128;28;20029;-69
2021/01/03 04:29:15;;;;;;;22.75;12.70;;;231.10;1817.60;;;;;;5034353;28;20425;-69
2021/01/03 04:31:40;;;;;;;19.70;12.75;;;231.10;1817.60;;;;;;5034207;28;20038;-69
2021/01/03 04:34:06;;;;;;;20.00;12.35;;;231.10;1817.60;;;;;;5034076;28;20379;-69
2021/01/03 04:36:33;;;;;;;19.10;12.20;;;231.00;1817.60;;;;;;5033973;28;20379;-69
2021/01/03 04:38:59;;;;;;;21.55;12.30;;;231.10;1817.60;;;;;;5034119;28;20033;-69
2021/01/03 04:41:28;;;;;;;23.00;12.68;;;231.00;1817.60;;;;;;5033736;28;20056;-69
2021/01/03 04:44:00;;;;;;;17.95;11.65;;;231.00;1817.60;;;;;;5033703;28;20060;-70
2021/01/03 04:46:32;;;;;;;22.42;12.38;;;231.00;1817.60;;;;;;5033823;28;20025;-69
2021/01/03 04:49:00;;;;;;;18.98;11.85;;;231.10;1817.60;;;;;;5033718;28;20117;-69
2021/01/03 04:51:47;;;;;;;17.42;12.10;;;231.00;1817.60;;;;;;5033711;28;20030;-69
2021/01/03 04:54:18;;;;;;;16.98;11.00;;;231.00;1817.60;;;;;;5033580;28;20039;-68
2021/01/03 04:56:47;;;;;;;19.95;12.23;;;231.00;1817.60;;;;;;5033836;28;20049;-69
2021/01/03 04:59:24;;;;;;;18.73;10.18;;;231.00;1817.60;;;;;;5033681;28;20026;-69
2021/01/03 05:02:18;;;;;;;20.50;11.77;;;231.10;1817.60;;;;;;5033781;28;20106;-68
2021/01/03 05:05:12;;;;;;;18.33;11.55;;;231.10;1817.60;;;;;;5033783;28;20037;-68
2021/01/03 05:07:44;;;;;;;17.60;10.60;;;231.00;1817.60;;;;;;5033538;28;20041;-68
2021/01/03 05:10:17;;;;;;;16.75;10.82;;;231.00;1843.20;;;;;;5033705;28;20040;-68
2021/01/03 05:12:51;;;;;;;23.48;12.32;;;231.00;1817.60;;;;;;5015785;28;20041;-68
2021/01/03 05:15:37;;;;;;;20.52;10.38;;;231.10;1817.60;;;;;;5033745;28;20029;-68
2021/01/03 05:18:05;;;;;;;15.90;10.57;;;231.10;1817.60;;;;;;5015361;28;20026;-69
2021/01/03 05:20:32;;;;;;;17.15;10.73;;;231.10;1817.60;;;;;;5035933;28;20036;-69
2021/01/03 05:23:18;;;;;;;14.85;10.55;;;231.00;1817.60;;;;;;5037739;28;20045;-69
2021/01/03 05:25:45;;;;;;;15.65;10.05;;;231.10;1843.20;;;;;;5037442;28;20087;-69
2021/01/03 05:28:21;;;;;;;19.27;10.63;;;231.10;1817.60;;;;;;5037275;28;20021;-69
2021/01/03 05:30:47;;;;;;;15.48;9.63;;;231.10;1843.20;;;;;;5019489;28;20541;-69
2021/01/03 05:33:22;;;;;;;19.80;9.55;;;231.10;1817.60;;;;;;5037327;28;20025;-68
2021/01/03 05:35:48;;;;;;;17.98;9.10;;;231.10;1843.20;;;;;;5037291;28;20374;-68
2021/01/03 05:38:41;;;;;;;13.27;9.02;;;231.10;1843.20;;;;;;5037091;28;20033;-69
2021/01/03 05:41:17;;;;;;;16.83;9.98;;;231.10;1843.20;;;;;;5037165;28;20385;-69
2021/01/03 05:43:54;;;;;;;16.52;9.57;;;231.10;1843.20;;;;;;5037255;28;20018;-70
2021/01/03 05:46:36;;;;;;;16.40;9.50;;;231.10;1843.20;;;;;;5037026;28;20466;-69
2021/01/03 05:49:06;;;;;;;14.75;9.43;;;231.10;1843.20;;;;;;5037199;28;20028;-68
2021/01/03 05:51:46;;;;;;;16.27;10.02;;;231.10;1843.20;;;;;;5037096;28;20068;-69
2021/01/03 05:54:29;;;;;;;15.15;9.55;;;231.10;1843.20;;;;;;5037149;28;20030;-68
2021/01/03 05:57:38;;;;;;;15.40;9.00;;;231.10;1843.20;;;;;;5037000;28;20489;-68
2021/01/03 06:00:24;;;;;;;15.05;9.43;;;231.10;1843.20;;;;;;4956659;29;20027;-69
2021/01/03 06:02:51;;;;;;;13.95;9.23;;;231.10;1843.20;;;;;;4955424;29;20042;-69
2021/01/03 06:05:23;;;;;;;15.55;10.25;;;231.10;1843.20;;;;;;4956701;29;20028;-69
2021/01/03 06:08:28;;;;;;;14.48;9.27;;;231.10;1843.20;;;;;;4956482;29;20027;-69
2021/01/03 06:10:54;;;;;;;12.70;8.90;;;231.10;1843.20;;;;;;4899513;29;20033;-69
2021/01/03 06:13:24;;;;;;;19.70;9.32;;;231.10;1843.20;;;;;;4899360;29;20066;-69
2021/01/03 06:15:59;;;;;;;15.65;9.70;;;231.10;1868.80;;;;;;4899244;29;20088;-69
2021/01/03 06:18:48;;;;;;;14.27;9.25;;;231.10;1843.20;;;;;;4899385;29;20033;-69
2021/01/03 06:21:32;;;;;;;15.20;9.48;;;231.10;1868.80;;;;;;4899192;29;20391;-69
2021/01/03 06:24:05;;;;;;;15.77;9.85;;;231.10;1868.80;;;;;;4883628;29;20084;-68
2021/01/03 06:26:36;;;;;;;16.52;9.40;;;231.10;1843.20;;;;;;4899210;29;20096;-68
2021/01/03 06:29:33;;;;;;;12.43;8.68;;;231.10;1868.80;;;;;;4899169;29;20064;-69
2021/01/03 06:32:33;;;;;;;16.48;9.80;;;231.10;1868.80;;;;;;4897657;29;20063;-69
2021/01/03 06:35:21;;;;;;;17.15;9.68;;;231.10;1868.80;;;;;;4932819;29;20216;-68
2021/01/03 06:37:56;;;;;;;18.38;9.73;;;231.10;1843.20;;;;;;4921082;29;20024;-70
2021/01/03 06:40:30;;;;;;;13.88;8.75;;;231.10;1843.20;;;;;;4936743;29;20039;-71
2021/01/03 06:43:22;;;;;;;15.40;8.95;;;231.10;1868.80;;;;;;5035994;28;20026;-68
2021/01/03 06:46:02;;;;;;;20.60;10.10;;;231.10;1843.20;;;;;;4955652;29;20038;-68
2021/01/03 06:49:04;;;;;;;18.73;9.65;;;231.10;1843.20;;;;;;4955980;29;20409;-69
2021/01/03 06:51:49;;;;;;;17.25;8.65;;;231.10;1868.80;;;;;;4955672;29;20098;-69
2021/01/03 06:54:29;;;;;;;14.30;8.70;;;231.10;1868.80;;;;;;4955693;29;20023;-69
2021/01/03 06:57:12;;;;;;;14.93;8.65;;;231.10;1868.80;;;;;;4955597;29;20031;-68
2021/01/03 06:59:56;;;;;;;13.48;7.70;;;231.10;1868.80;;;;;;4955724;29;20073;-69
2021/01/03 07:02:23;;;;;;;11.23;7.43;;;231.20;1868.80;;;;;;4955374;28;20043;-68
2021/01/03 07:04:49;;;;;;;10.65;6.90;;;231.20;1868.80;;;;;;4955516;29;20089;-68
2021/01/03 07:07:20;;;;;;;11.07;6.15;;;231.20;1843.20;;;;;;4955664;29;20097;-68
2021/01/03 07:10:00;;;;;;;10.35;6.20;;;231.20;1868.80;;;;;;4939356;29;20398;-69
2021/01/03 07:12:31;;;;;;;10.10;6.72;;;231.20;1868.80;;;;;;4955285;29;20065;-69
2021/01/03 07:14:57;;;;;;;10.68;6.57;;;231.30;1843.20;;;;;;4955270;29;20039;-69
2021/01/03 07:17:44;;;;;;;10.85;6.45;;;231.30;1843.20;;;;;;4955261;29;20042;-69
2021/01/03 07:20:12;;;;;;;13.65;6.43;;;231.30;1843.20;;;;;;4955254;29;20031;-74
2021/01/03 07:22:47;;;;;;;12.20;5.75;;;231.30;1868.80;;;;;;4990146;28;20037;-71
2021/01/03 07:25:20;;;;;;;;;;;231.30;1843.20;;;;;;5035715;28;20022;-67
2021/01/03 07:28:12;;;;;;;9.38;5.45;;;231.30;1843.20;;;;;;5034981;28;20369;-68
2021/01/03 07:31:01;;;;;;;13.60;6.22;;;231.30;1843.20;;;;;;5035334;28;20022;-69
2021/01/03 07:33:41;;;;;;;17.20;5.78;;;231.30;1843.20;;;;;;5035174;28;20080;-69
2021/01/03 07:36:36;;;;;;;15.45;6.53;;;256.00;1843.20;;;;;;5034789;28;20082;-69
2021/01/03 07:39:05;;;;;;;;;;;256.00;1843.20;;;;;;5030855;28;20352;-72
2021/01/03 07:41:31;;;;;;;12.02;5.32;;;256.00;1843.20;;;;;;5034773;28;19917;-70
2021/01/03 07:44:01;;;;;;;7.82;4.82;;;256.00;1843.20;;;;;;5034076;28;20100;-72
2021/01/03 07:46:52;;;;;;;12.35;5.63;;;256.00;1843.20;;;;;;5035013;28;20071;-72
2021/01/03 07:49:34;;;;;;;12.52;6.70;;;256.00;1843.20;;;;;;5035062;28;20120;-70
2021/01/03 07:52:22;;;;;;;13.70;7.00;;;256.10;1843.20;;;;;;5034829;28;20125;-71
2021/01/03 07:54:56;;;;;;;9.15;6.10;;;256.00;1817.60;;;;;;5034388;28;20438;-70
2021/01/03 07:57:26;;;;;;;10.18;6.18;;;256.10;1817.60;;;;;;5034616;28;20479;-70
2021/01/03 07:59:54;;;;;;;10.55;6.20;;;256.10;1817.60;;;;;;5034414;28;20036;-71
2021/01/03 08:02:25;;;;;;;9.75;6.93;;;256.10;1817.60;;;;;;5034689;28;20029;-70
2021/01/03 08:04:56;;;;;;;15.40;7.90;;;256.20;1817.60;;;;;;5034611;28;20025;-71
2021/01/03 08:07:23;;;;;;;11.90;6.90;;;256.30;1817.60;;;;;;5034525;28;20025;-72
2021/01/03 08:09:49;;;;;;;10.40;6.35;;;256.20;1817.60;;;;;;5034607;28;20032;-71
2021/01/03 08:12:21;;;;;;;10.18;5.90;;;256.20;1817.60;;;;;;5034208;28;20040;-71
2021/01/03 08:14:48;;;;;;;9.23;5.22;;;256.30;1817.60;;;;;;5034430;28;20116;-71
2021/01/03 08:17:21;;;;;;;10.63;5.20;;;256.30;1817.60;;;;;;5034318;28;20475;-71
2021/01/03 08:19:48;;;;;;;10.13;5.13;;;256.40;1817.60;;;;;;5034296;28;20075;-70
2021/01/03 08:22:22;;;;;;;7.70;5.55;;;256.40;1817.60;;;;;;5034351;28;20026;-71
2021/01/03 08:24:58;;;;;;;11.05;5.10;;;256.30;1817.60;;;;;;5034040;28;20095;-70
2021/01/03 08:27:48;;;;;;;12.27;4.93;;;256.40;1817.60;;;;;;5033822;28;20030;-71
2021/01/03 08:30:17;;;;;;;10.70;6.30;;;256.40;1817.60;;;;;;5033165;28;20113;-69
2021/01/03 08:32:43;;;;;;;10.98;6.68;;;256.40;1817.60;;;;;;5033483;28;20060;-70
2021/01/03 08:35:14;;;;;;;10.02;6.40;;;256.40;1817.60;;;;;;5034208;28;20483;-70
2021/01/03 08:37:46;;;;;;;9.52;5.90;;;256.40;1817.60;;;;;;5033816;28;20083;-70
2021/01/03 08:40:37;;;;;;;10.73;6.50;;;256.40;1817.60;;;;;;5034295;28;20017;-70
2021/01/03 08:43:10;;;;;;;6.93;5.43;;;256.50;1792.00;;;;;;5033828;28;20041;-70
2021/01/03 08:45:40;;;;;;;10.20;5.97;;;256.50;1792.00;;;;;;5033738;28;20030;-70
2021/01/03 08:48:10;;;;;;;6.95;4.20;;;256.50;1817.60;;;;;;5033843;28;20108;-70
2021/01/03 08:50:38;;;;;;;7.55;5.82;;;256.50;1792.00;;;;;;5033881;28;20049;-70
2021/01/03 08:53:07;;;;;;;9.00;6.40;;;256.60;1792.00;;;;;;5033494;28;20443;-70
2021/01/03 08:55:37;;;;;;;9.18;5.40;;;256.50;1792.00;;;;;;5033710;28;20103;-74
2021/01/03 08:58:10;;;;;;;13.18;7.13;;;256.60;1792.00;;;;;;5033877;28;20099;-70
2021/01/03 09:00:40;;;;;;;9.02;4.80;;;256.60;1792.00;;;;;;5033877;28;20021;-70
2021/01/03 09:03:16;;;;;;;7.35;5.30;;;256.70;1792.00;;;;;;5033702;28;20032;-70
2021/01/03 09:05:43;;;;;;;6.57;4.78;;;256.70;1792.00;;;;;;5033726;28;20490;-70
2021/01/03 09:08:17;;;;;;;16.52;7.05;;;256.70;1792.00;;;;;;5033491;28;20034;-69
2021/01/03 09:10:44;;;;;;;17.48;10.90;;;256.80;1792.00;;;;;;5033743;28;20025;-71
2021/01/03 09:13:28;;;;;;;9.27;6.47;;;256.80;1817.60;;;;;;5033331;28;20047;-70
2021/01/03 09:16:00;;;;;;;9.70;5.45;;;256.90;1792.00;;;;;;5033721;28;20060;-71
2021/01/03 09:18:37;;;;;;;9.25;4.97;;;256.80;1766.40;;;;;;5033726;28;20026;-70
2021/01/03 09:21:06;;;;;;;7.55;5.07;;;256.90;1766.40;;;;;;5015303;28;20033;-70
2021/01/03 09:23:37;;;;;;;7.13;4.70;;;256.90;1766.40;;;;;;5015911;28;20033;-70
2021/01/03 09:26:03;;;;;;;9.10;5.53;;;256.90;1766.40;;;;;;5033773;28;20021;-70
2021/01/03 09:28:38;;;;;;;6.78;5.03;;;256.90;1792.00;;;;;;5032912;28;20037;-70
2021/01/03 09:31:13;;;;;;;20.30;7.90;;;256.90;1792.00;;;;;;5033179;28;20025;-73
2021/01/03 09:33:40;;;;;;;19.80;6.13;;;281.60;1817.60;;;;;;5033559;28;20036;-73
2021/01/03 09:36:35;;;;;;;26.65;6.32;;;281.60;1843.20;;;;;;5033381;28;20041;-70
2021/01/03 09:39:14;;;;;;;12.52;5.22;;;281.60;1817.60;;;;;;5015740;28;20067;-71
2021/01/03 09:42:24;;;;;;;10.98;5.28;;;281.70;1817.60;;;;;;5033005;28;20049;-70
2021/01/03 09:44:49;;;;;;;6.85;4.57;;;281.70;1817.60;;;;;;4953293;29;20046;-71
2021/01/03 09:47:15;;;;;;;6.93;4.40;;;281.70;1792.00;;;;;;4953409;29;20031;-69
2021/01/03 09:49:46;;;;;;;6.65;4.57;;;281.70;1792.00;;;;;;4953258;29;20035;-71
2021/01/03 09:52:35;;;;;;;11.82;6.32;;;281.70;1792.00;;;;;;4953134;29;20032;-69
2021/01/03 09:55:03;;;;;;;22.13;11.43;;;281.70;1792.00;;;;;;4953065;29;20038;-70
2021/01/03 09:57:47;;;;;;;12.48;8.38;;;281.70;1792.00;;;;;;4952965;29;20023;-70
2021/01/03 10:00:16;;;;;;;12.45;7.57;;;281.70;1792.00;;;;;;4953174;29;20027;-70
2021/01/03 10:02:42;;;;;;;16.33;9.00;;;281.70;1792.00;;;;;;4953193;29;20039;-69
2021/01/03 10:05:25;;;;;;;13.25;7.55;;;281.70;1792.00;;;;;;4953009;28;20389;-69
2021/01/03 10:07:57;;;;;;;12.00;6.47;;;281.70;1792.00;;;;;;4956656;29;20039;-70
2021/01/03 10:10:41;;;;;;;22.90;11.98;;;281.80;1792.00;;;;;;4956407;29;20030;-69
2021/01/03 10:13:08;;;;;;;15.38;8.15;;;281.80;1792.00;;;;;;4956405;28;20062;-70
2021/01/03 10:15:34;;;;;;;17.42;9.77;;;281.80;1792.00;;;;;;4997075;28;20026;-69
2021/01/03 10:18:06;;;;;;;13.57;8.57;;;281.80;1792.00;;;;;;5036544;28;20036;-69
2021/01/03 10:20:50;;;;;;;13.95;7.82;;;281.80;1792.00;;;;;;5018717;28;20421;-69
2021/01/03 10:23:39;;;;;;;15.43;8.23;;;281.80;1792.00;;;;;;5036475;28;20022;-69
2021/01/03 10:26:18;;;;;;;84.80;32.05;;;281.80;1792.00;;;;;;5018337;28;20033;-70
2021/01/03 10:28:44;;;;;;;86.43;33.08;;;281.90;1996.80;;;;;;5036416;28;20044;-70
2021/01/03 10:31:10;;;;;;;46.47;21.02;;;282.40;2073.60;;;;;;5036283;28;20487;-70
2021/01/03 10:33:36;;;;;;;18.00;9.23;;;307.20;2022.40;;;;;;5036421;28;20045;-70
2021/01/03 10:36:02;;;;;;;45.22;16.15;;;282.50;1817.60;;;;;;5036376;28;20027;-70
2021/01/03 10:38:27;;;;;;;31.60;13.20;;;307.20;1894.40;;;;;;5036047;28;20026;-70
2021/01/03 10:40:53;;;;;;;17.33;9.07;;;282.50;1817.60;;;;;;5035618;28;20049;-69
2021/01/03 10:43:19;;;;;;;13.50;8.30;;;282.50;1792.00;;;;;;5034751;28;20025;-71
2021/01/03 10:45:44;;;;;;;15.90;8.50;;;282.30;1766.40;;;;;;5034717;28;20033;-70
2021/01/03 10:48:12;;;;;;;15.38;9.65;;;282.30;1792.00;;;;;;5014381;28;20049;-71
2021/01/03 10:50:38;;;;;;;22.42;11.55;;;282.30;1766.40;;;;;;5034636;28;20048;-71
2021/01/03 10:53:04;;;;;;;58.78;32.13;;;282.30;1766.40;;;;;;5034298;28;20104;-69
2021/01/03 10:55:29;;;;;;;131.18;66.13;;;282.30;1792.00;;;;;;5035071;28;20013;-72
2021/01/03 10:57:57;;;;;;;60.70;28.92;;;282.30;1843.20;;;;;;5034467;28;20029;-71
2021/01/03 11:00:23;;;;;;;31.30;13.23;;;282.30;1792.00;;;;;;5034202;28;20053;-70
2021/01/03 11:02:49;;;;;;;34.72;11.35;;;282.30;1792.00;;;;;;5034105;28;20024;-70
2021/01/03 11:05:18;;;;;;;19.20;10.07;;;282.40;1792.00;;;;;;5034444;28;20375;-70
2021/01/03 11:07:44;;;;;;;16.23;8.68;;;282.40;1792.00;;;;;;5015552;28;20037;-70
2021/01/03 11:10:12;;;;;;;19.05;8.38;;;282.40;1792.00;;;;;;5033875;28;20474;-69
2021/01/03 11:12:38;;;;;;;17.23;8.85;;;282.40;1766.40;;;;;;5034277;28;20474;-70
2021/01/03 11:15:09;;;;;;;21.35;11.27;;;282.50;1766.40;;;;;;5015745;28;20494;-69
2021/01/03 11:17:35;;;;;;;21.17;8.65;;;282.50;1766.40;;;;;;5012812;28;20033;-70
2021/01/03 11:20:02;;;;;;;12.93;8.05;;;282.50;1766.40;;;;;;5033416;28;20030;-71
2021/01/03 11:22:28;;;;;;;13.82;8.40;;;307.20;1792.00;;;;;;5031284;28;20025;-73
2021/01/03 11:24:54;;;;;;;18.25;9.27;;;307.20;1792.00;;;;;;5015101;28;20032;-70
2021/01/03 11:27:21;;;;;;;26.55;10.70;;;307.20;1792.00;;;;;;5034021;28;20060;-70
2021/01/03 11:29:49;;;;;;;26.45;11.48;;;307.30;1792.00;;;;;;5033641;28;20017;-71
2021/01/03 11:32:26;;;;;;;20.90;10.32;;;307.40;1792.00;;;;;;5033629;28;20056;-71
2021/01/03 11:34:52;;;;;;;20.27;10.27;;;307.60;1792.00;;;;;;5035198;28;20021;-71
2021/01/03 11:37:22;;;;;;;22.23;10.00;;;307.70;1766.40;;;;;;5034704;28;20052;-71
2021/01/03 11:39:48;;;;;;;17.02;10.35;;;307.70;1766.40;;;;;;5035276;28;20044;-71
2021/01/03 11:42:23;;;;;;;18.70;11.18;;;307.80;1766.40;;;;;;5034877;28;20057;-71
2021/01/03 11:44:49;;;;;;;14.27;9.07;;;307.90;1766.40;;;;;;5034852;28;20018;-71
2021/01/03 11:47:18;;;;;;;14.05;9.27;;;307.90;1766.40;;;;;;5035112;28;20026;-71
2021/01/03 11:49:45;;;;;;;15.13;9.43;;;307.90;1766.40;;;;;;5034920;28;20052;-70
2021/01/03 11:52:11;;;;;;;17.20;9.82;;;307.90;1766.40;;;;;;5034564;28;20090;-71
2021/01/03 11:54:37;;;;;;;25.33;14.68;;;307.90;1766.40;;;;;;5034799;28;20021;-71
2021/01/03 11:57:04;;;;;;;17.20;10.88;;;308.00;1766.40;;;;;;5034902;28;20427;-71
2021/01/03 11:59:31;;;;;;;17.20;9.05;;;332.80;1792.00;;;;;;5034419;28;20032;-71
2021/01/03 12:01:58;;;;;;;13.00;8.57;;;332.90;1766.40;;;;;;5034901;28;20026;-71
2021/01/03 12:04:24;;;;;;;12.57;8.05;;;333.00;1792.00;;;;;;5034653;28;20112;-75
2021/01/03 12:06:57;;;;;;;11.70;7.53;;;333.00;1766.40;;;;;;5034733;28;20163;-72
2021/01/03 12:09:26;;;;;;;19.90;8.93;;;333.00;1740.80;;;;;;5034520;28;20078;-69
2021/01/03 12:11:53;;;;;;;14.32;8.50;;;333.10;1740.80;;;;;;5034540;28;20375;-68
2021/01/03 12:14:19;;;;;;;25.67;9.75;;;333.10;1740.80;;;;;;5034393;28;20045;-68
2021/01/03 12:16:45;;;;;;;14.07;7.95;;;333.10;1740.80;;;;;;5034203;28;20025;-68
2021/01/03 12:19:11;;;;;;;14.35;7.18;;;333.10;1740.80;;;;;;5016222;28;20494;-68
2021/01/03 12:21:37;;;;;;;11.65;7.00;;;333.00;1740.80;;;;;;5033916;28;20459;-68
2021/01/03 12:24:03;;;;;;;15.70;8.05;;;333.00;1740.80;;;;;;5034357;28;20026;-68
2021/01/03 12:26:40;;;;;;;15.88;8.57;;;333.00;1740.80;;;;;;5034504;28;20471;-68